createdAt,value
2023-04-30T00:03:41.204Z,11.44
2023-04-30T00:07:43.055Z,11.41
2023-04-30T00:11:44.718Z,11.42
2023-04-30T00:15:46.499Z,11.35
2023-04-30T00:19:48.139Z,11.34
2023-04-30T00:23:50.309Z,11.34
2023-04-30T00:27:51.979Z,11.32
2023-04-30T00:31:56.218Z,11.32
2023-04-30T06:56:38.631Z,12.19
2023-04-30T07:00:42.921Z,12.38
2023-04-30T07:04:45.736Z,12.52
2023-04-30T07:08:48.714Z,12.78
2023-04-30T07:12:51.659Z,12.99
2023-04-30T07:16:54.952Z,13.14
2023-04-30T07:20:56.602Z,13.34
2023-04-30T07:25:00.997Z,13.42
2023-04-30T07:29:04.822Z,13.52
2023-04-30T07:33:08.609Z,13.71
2023-04-30T07:37:11.773Z,13.89
2023-04-30T07:41:14.641Z,14.09
2023-04-30T07:45:19.363Z,14.24
2023-04-30T07:49:21.193Z,14.42
2023-04-30T07:53:24.050Z,14.56
2023-04-30T07:57:28.900Z,14.64
2023-04-30T08:01:30.721Z,14.91
2023-04-30T08:05:32.700Z,15.12
2023-04-30T08:09:34.527Z,15.24
2023-04-30T08:13:36.987Z,15.32
2023-04-30T08:17:39.880Z,15.55
2023-04-30T08:21:42.135Z,15.91
2023-04-30T08:25:43.787Z,16.08
2023-04-30T08:29:45.861Z,16.00
2023-04-30T08:33:47.563Z,16.31
2023-04-30T08:37:49.750Z,16.60
2023-04-30T08:41:59.665Z,16.97
2023-04-30T08:46:03.664Z,17.30
2023-04-30T08:50:08.622Z,17.49
2023-04-30T08:54:13.517Z,17.80
2023-04-30T08:58:15.767Z,17.72
2023-04-30T09:02:17.849Z,17.52
2023-04-30T09:06:19.881Z,17.08
2023-04-30T09:10:24.641Z,16.98
2023-04-30T09:14:27.455Z,17.01
2023-04-30T09:18:31.061Z,17.29
2023-04-30T09:22:33.161Z,17.63
2023-04-30T09:26:39.448Z,17.80
2023-04-30T09:30:41.747Z,17.85
2023-04-30T09:34:43.995Z,18.11
2023-04-30T09:38:46.594Z,18.29
2023-04-30T09:42:59.935Z,18.68
2023-04-30T09:47:02.121Z,18.97
2023-04-30T09:51:04.626Z,19.16
2023-04-30T09:55:07.785Z,19.09
2023-04-30T10:03:48.502Z,19.42
2023-04-30T10:07:50.367Z,19.78
2023-04-30T10:11:52.427Z,19.64
2023-04-30T10:16:04.671Z,19.69
2023-04-30T10:20:09.523Z,19.99
2023-04-30T10:24:14.086Z,20.14
2023-04-30T10:28:16.241Z,20.03
2023-04-30T10:32:19.788Z,20.04
2023-04-30T10:36:31.015Z,19.89
2023-04-30T10:40:40.657Z,20.12
2023-04-30T10:44:46.268Z,20.24
2023-04-30T10:48:48.950Z,20.52
2023-04-30T10:53:03.956Z,20.64
2023-04-30T10:57:14.251Z,20.73
2023-04-30T11:01:17.884Z,20.78
2023-04-30T11:05:19.811Z,20.72
2023-04-30T11:09:36.666Z,20.44
2023-04-30T11:13:46.469Z,20.71
2023-04-30T11:17:51.415Z,20.84
2023-04-30T11:22:05.655Z,20.74
2023-04-30T11:26:08.179Z,21.03
2023-04-30T11:30:13.736Z,21.44
2023-04-30T11:34:15.618Z,21.68
2023-04-30T11:38:18.653Z,21.99
2023-04-30T11:42:22.064Z,22.52
2023-04-30T11:46:23.840Z,23.37
2023-04-30T11:50:31.751Z,23.92
2023-04-30T11:59:12.820Z,24.87
2023-04-30T12:03:16.161Z,25.43
2023-04-30T12:07:17.973Z,25.75
2023-04-30T12:11:22.652Z,25.43
2023-04-30T12:15:29.283Z,25.32
2023-04-30T12:24:11.976Z,24.01
2023-04-30T12:28:14.424Z,25.30
2023-04-30T12:32:23.346Z,25.73
2023-04-30T12:36:32.445Z,26.65
2023-04-30T12:40:34.734Z,27.50
2023-04-30T12:44:44.930Z,27.50
2023-04-30T12:53:16.552Z,28.58
2023-04-30T12:57:18.350Z,27.86
2023-04-30T13:01:25.437Z,27.17
2023-04-30T13:05:27.440Z,27.17
2023-04-30T13:09:29.140Z,27.60
2023-04-30T13:13:30.881Z,27.72
2023-04-30T13:17:32.590Z,27.08
2023-04-30T13:21:35.038Z,28.12
2023-04-30T13:25:38.635Z,29.40
2023-04-30T13:29:42.117Z,30.25
2023-04-30T13:33:44.167Z,30.40
2023-04-30T13:37:48.062Z,30.65
2023-04-30T13:41:50.658Z,30.63
2023-04-30T13:45:52.691Z,31.07
2023-04-30T13:49:54.473Z,31.28
2023-04-30T13:53:56.829Z,31.22
2023-04-30T13:57:58.801Z,31.66
2023-04-30T14:02:00.811Z,32.20
2023-04-30T14:06:03.887Z,32.00
2023-04-30T14:10:06.508Z,31.19
2023-04-30T14:14:09.417Z,29.99
2023-04-30T14:18:11.092Z,28.37
2023-04-30T14:22:13.705Z,26.99
2023-04-30T14:26:15.405Z,26.11
2023-04-30T14:30:17.937Z,25.29
2023-04-30T14:34:19.985Z,25.00
2023-04-30T14:38:22.118Z,24.94
2023-04-30T14:42:23.832Z,24.72
2023-04-30T14:46:25.515Z,24.76
2023-04-30T14:50:27.362Z,24.86
2023-04-30T14:54:31.317Z,24.47
2023-04-30T14:58:33.002Z,24.07
2023-04-30T15:02:35.052Z,23.66
2023-04-30T15:06:38.044Z,23.46
2023-04-30T15:10:39.700Z,23.30
2023-04-30T15:14:41.929Z,23.13
2023-04-30T15:18:44.034Z,22.85
2023-04-30T15:22:46.687Z,22.41
2023-04-30T15:26:48.708Z,22.34
2023-04-30T15:30:52.535Z,22.16
2023-04-30T15:34:55.374Z,21.84
2023-04-30T15:38:57.123Z,21.95
2023-04-30T15:42:58.910Z,22.13
2023-04-30T15:47:00.786Z,21.96
2023-04-30T15:51:03.693Z,21.77
2023-04-30T15:55:06.718Z,21.64
2023-04-30T15:59:08.645Z,21.63
2023-04-30T16:03:10.848Z,21.52
2023-04-30T16:07:12.830Z,21.39
2023-04-30T16:11:14.797Z,21.38
2023-04-30T16:15:16.762Z,21.68
2023-04-30T16:19:18.436Z,21.66
2023-04-30T16:23:20.445Z,21.34
2023-04-30T16:27:22.180Z,21.07
2023-04-30T16:31:23.962Z,20.91
2023-04-30T16:35:26.187Z,20.69
2023-04-30T16:39:27.862Z,20.59
2023-04-30T16:43:29.692Z,20.49
2023-04-30T16:47:31.741Z,20.44
2023-04-30T16:51:33.955Z,20.38
2023-04-30T16:55:35.680Z,20.35
2023-04-30T16:59:37.761Z,20.50
2023-04-30T17:03:39.650Z,20.58
2023-04-30T17:07:44.992Z,20.58
2023-04-30T17:11:47.145Z,20.50
2023-04-30T17:15:49.092Z,20.24
2023-04-30T17:19:50.820Z,20.07
2023-04-30T17:23:52.990Z,19.89
2023-04-30T17:27:55.682Z,19.62
2023-04-30T17:31:58.722Z,19.42
2023-04-30T17:36:02.145Z,19.29
2023-04-30T17:40:05.726Z,19.20
2023-04-30T17:44:07.627Z,19.01
2023-04-30T17:48:09.729Z,18.75
2023-04-30T17:52:12.051Z,18.48
2023-04-30T17:56:13.775Z,18.22
2023-04-30T18:00:17.129Z,17.93
2023-04-30T18:04:20.749Z,17.65
2023-04-30T18:08:22.608Z,17.36
2023-04-30T18:12:24.405Z,17.10
2023-04-30T18:16:27.484Z,16.79
2023-04-30T18:20:29.685Z,16.57
2023-04-30T18:24:31.728Z,16.30
2023-04-30T18:28:37.005Z,16.05
2023-04-30T18:32:39.041Z,15.82
2023-04-30T18:36:43.218Z,15.62
2023-04-30T18:40:45.703Z,15.44
2023-04-30T18:44:48.910Z,15.26
2023-04-30T18:48:51.707Z,15.09
2023-04-30T18:52:54.002Z,14.91
2023-04-30T18:56:55.917Z,14.74
2023-04-30T19:00:58.832Z,14.63
2023-04-30T19:05:00.915Z,14.47
2023-04-30T19:09:02.763Z,14.35
2023-04-30T19:13:04.568Z,14.23
2023-04-30T19:17:06.790Z,14.10
2023-04-30T19:21:09.841Z,13.98
2023-04-30T19:25:11.596Z,13.87
2023-04-30T19:29:13.710Z,13.81
2023-04-30T19:33:15.587Z,13.73
2023-04-30T19:37:17.257Z,13.59
2023-04-30T19:41:20.156Z,13.44
2023-04-30T19:45:22.738Z,13.38
2023-04-30T19:49:26.225Z,13.34
2023-04-30T19:53:29.329Z,13.29
2023-04-30T19:57:36.066Z,13.21
2023-04-30T20:01:38.812Z,13.15
2023-04-30T20:05:40.917Z,13.09
2023-04-30T20:09:42.862Z,13.05
2023-04-30T20:13:44.552Z,13.00
2023-04-30T20:17:46.837Z,12.94
2023-04-30T20:21:52.318Z,12.91
2023-04-30T20:25:55.239Z,12.88
2023-04-30T20:29:57.308Z,12.83
2023-04-30T20:33:59.656Z,12.81
2023-04-30T20:38:02.858Z,12.76
2023-04-30T20:42:04.768Z,12.74
2023-04-30T20:46:06.635Z,12.71
2023-04-30T20:50:08.732Z,12.72
2023-04-30T20:54:11.118Z,12.70
2023-04-30T20:58:13.027Z,12.67
2023-04-30T21:02:16.751Z,12.67
2023-04-30T21:06:18.710Z,12.68
2023-04-30T21:10:20.538Z,12.67
2023-04-30T21:14:22.710Z,12.64
2023-04-30T21:18:27.166Z,12.65
2023-04-30T21:22:29.051Z,12.70
2023-04-30T21:26:31.040Z,12.74
2023-04-30T21:30:32.863Z,12.79
2023-04-30T21:34:34.870Z,12.89
2023-04-30T21:38:36.756Z,12.94
2023-04-30T21:42:38.713Z,13.03
2023-04-30T21:46:41.720Z,13.06
2023-04-30T21:50:44.716Z,13.12
2023-04-30T21:54:49.353Z,13.10
2023-04-30T21:58:51.157Z,13.04
2023-04-30T22:02:53.036Z,12.94
2023-04-30T22:06:54.935Z,12.88
2023-04-30T22:11:00.792Z,12.84
2023-04-30T22:15:03.606Z,12.82
2023-04-30T22:19:05.710Z,12.76
2023-04-30T22:23:07.600Z,12.74
2023-04-30T22:27:09.472Z,12.76
2023-04-30T22:31:11.514Z,12.66
2023-04-30T22:35:16.352Z,12.64
2023-04-30T22:39:18.793Z,12.61
2023-04-30T22:43:22.741Z,12.61
2023-04-30T22:47:27.366Z,12.67
2023-04-30T22:51:29.366Z,12.71
2023-04-30T22:55:33.089Z,12.71
2023-04-30T22:59:34.973Z,12.63
2023-04-30T23:03:39.328Z,12.55
2023-04-30T23:07:41.397Z,12.52
2023-04-30T23:11:45.637Z,12.54
2023-04-30T23:15:48.797Z,12.53
2023-04-30T23:19:50.588Z,12.44
2023-04-30T23:23:52.387Z,12.34
2023-04-30T23:27:54.144Z,12.36
2023-04-30T23:31:55.844Z,12.28
2023-04-30T23:35:57.535Z,12.22
2023-04-30T23:40:01.091Z,12.15
2023-04-30T23:44:02.757Z,12.13
2023-04-30T23:48:05.068Z,12.10
2023-04-30T23:52:07.188Z,12.10
2023-04-30T23:56:08.838Z,12.12
